sensor_id;sensor_type;location;lat;lon;timestamp;pressure;altitude;pressure_sealevel;temperature;humidity
60820;BME280;46641;48.904;9.126;2022-11-21T00:00:09;97786.38;;;12.37;59.62
60820;BME280;46641;48.904;9.126;2022-11-21T00:05:00;97781.31;;;12.35;59.66
60820;BME280;46641;48.904;9.126;2022-11-21T00:09:50;97770.63;;;12.37;59.88
60820;BME280;46641;48.904;9.126;2022-11-21T00:14:41;97767.84;;;12.38;59.46
60820;BME280;46641;48.904;9.126;2022-11-21T00:19:32;97770.00;;;12.35;59.66
60820;BME280;46641;48.904;9.126;2022-11-21T00:24:22;97765.56;;;12.35;60.01
60820;BME280;46641;48.904;9.126;2022-11-21T00:29:12;97752.44;;;12.35;59.96
60820;BME280;46641;48.904;9.126;2022-11-21T00:34:03;97745.38;;;12.36;59.68
60820;BME280;46641;48.904;9.126;2022-11-21T00:38:53;97735.69;;;12.36;59.81
60820;BME280;46641;48.904;9.126;2022-11-21T00:43:43;97735.91;;;12.35;59.63
60820;BME280;46641;48.904;9.126;2022-11-21T00:48:34;97731.63;;;12.34;59.85
60820;BME280;46641;48.904;9.126;2022-11-21T00:53:24;97726.56;;;12.32;59.77
60820;BME280;46641;48.904;9.126;2022-11-21T00:58:14;97714.41;;;12.31;59.65
60820;BME280;46641;48.904;9.126;2022-11-21T01:03:04;97709.53;;;12.28;59.84
60820;BME280;46641;48.904;9.126;2022-11-21T01:07:55;97712.34;;;12.27;59.87
60820;BME280;46641;48.904;9.126;2022-11-21T01:12:45;97727.28;;;12.26;60.09
60820;BME280;46641;48.904;9.126;2022-11-21T01:17:35;97729.91;;;12.26;60.24
60820;BME280;46641;48.904;9.126;2022-11-21T01:22:25;97741.38;;;12.25;60.13
60820;BME280;46641;48.904;9.126;2022-11-21T01:27:16;97734.34;;;12.26;59.92
60820;BME280;46641;48.904;9.126;2022-11-21T01:32:07;97725.66;;;12.25;59.81
60820;BME280;46641;48.904;9.126;2022-11-21T01:36:58;97728.44;;;12.24;60.19
60820;BME280;46641;48.904;9.126;2022-11-21T01:41:48;97731.06;;;12.24;59.95
60820;BME280;46641;48.904;9.126;2022-11-21T01:46:38;97718.13;;;12.22;60.00
60820;BME280;46641;48.904;9.126;2022-11-21T01:51:46;97710.25;;;12.22;59.71
60820;BME280;46641;48.904;9.126;2022-11-21T01:56:43;97709.41;;;12.22;59.84
60820;BME280;46641;48.904;9.126;2022-11-21T02:01:36;97713.41;;;12.18;60.36
60820;BME280;46641;48.904;9.126;2022-11-21T02:06:27;97713.75;;;12.14;60.21
60820;BME280;46641;48.904;9.126;2022-11-21T02:11:35;97715.56;;;12.14;59.97
60820;BME280;46641;48.904;9.126;2022-11-21T02:16:27;97713.75;;;12.14;60.12
60820;BME280;46641;48.904;9.126;2022-11-21T02:21:22;97715.75;;;12.12;60.12
60820;BME280;46641;48.904;9.126;2022-11-21T02:26:15;97712.13;;;12.13;60.29
60820;BME280;46641;48.904;9.126;2022-11-21T02:31:05;97707.03;;;12.12;59.97
60820;BME280;46641;48.904;9.126;2022-11-21T02:36:00;97698.19;;;12.13;60.03
60820;BME280;46641;48.904;9.126;2022-11-21T02:41:00;97698.38;;;12.11;59.96
60820;BME280;46641;48.904;9.126;2022-11-21T02:45:51;97701.63;;;12.13;60.30
60820;BME280;46641;48.904;9.126;2022-11-21T02:50:43;97685.91;;;12.13;60.32
60820;BME280;46641;48.904;9.126;2022-11-21T02:55:34;97684.09;;;12.14;60.44
60820;BME280;46641;48.904;9.126;2022-11-21T03:00:24;97676.41;;;12.12;60.08
60820;BME280;46641;48.904;9.126;2022-11-21T03:05:17;97671.16;;;12.12;59.98
60820;BME280;46641;48.904;9.126;2022-11-21T03:10:08;97676.41;;;12.12;60.41
60820;BME280;46641;48.904;9.126;2022-11-21T03:14:58;97674.59;;;12.13;60.01
60820;BME280;46641;48.904;9.126;2022-11-21T03:19:49;97668.53;;;12.12;60.16
60820;BME280;46641;48.904;9.126;2022-11-21T03:24:39;97672.13;;;12.11;60.05
60820;BME280;46641;48.904;9.126;2022-11-21T03:29:29;97669.69;;;12.10;60.09
60820;BME280;46641;48.904;9.126;2022-11-21T03:34:20;97670.88;;;12.07;60.17
60820;BME280;46641;48.904;9.126;2022-11-21T03:39:10;97667.25;;;12.08;60.46
60820;BME280;46641;48.904;9.126;2022-11-21T03:44:03;97655.31;;;12.06;60.31
60820;BME280;46641;48.904;9.126;2022-11-21T03:48:54;97649.06;;;12.07;60.28
60820;BME280;46641;48.904;9.126;2022-11-21T03:53:45;97647.47;;;12.06;60.11
60820;BME280;46641;48.904;9.126;2022-11-21T03:58:35;97648.63;;;12.03;60.45
60820;BME280;46641;48.904;9.126;2022-11-21T04:03:25;97650.25;;;12.04;60.30
60820;BME280;46641;48.904;9.126;2022-11-21T04:08:16;97654.69;;;12.04;60.35
60820;BME280;46641;48.904;9.126;2022-11-21T04:13:06;97648.63;;;12.03;60.25
60820;BME280;46641;48.904;9.126;2022-11-21T04:17:56;97644.19;;;12.04;60.68
60820;BME280;46641;48.904;9.126;2022-11-21T04:22:46;97645.00;;;12.04;60.25
60820;BME280;46641;48.904;9.126;2022-11-21T04:27:37;97639.75;;;12.04;60.33
60820;BME280;46641;48.904;9.126;2022-11-21T04:32:27;97643.38;;;12.03;60.39
60820;BME280;46641;48.904;9.126;2022-11-21T04:37:17;97648.63;;;12.03;60.45
60820;BME280;46641;48.904;9.126;2022-11-21T04:42:08;97653.06;;;12.03;60.32
60820;BME280;46641;48.904;9.126;2022-11-21T04:46:58;97654.69;;;12.04;60.37
60820;BME280;46641;48.904;9.126;2022-11-21T04:51:49;97655.47;;;12.04;60.50
60820;BME280;46641;48.904;9.126;2022-11-21T04:56:39;97651.84;;;12.05;60.32
60820;BME280;46641;48.904;9.126;2022-11-21T05:01:30;97648.78;;;12.02;60.30
60820;BME280;46641;48.904;9.126;2022-11-21T05:06:20;97647.97;;;12.01;60.28
60820;BME280;46641;48.904;9.126;2022-11-21T05:11:10;97648.97;;;12.00;60.09
60820;BME280;46641;48.904;9.126;2022-11-21T05:16:19;97647.72;;;11.96;60.32
60820;BME280;46641;48.904;9.126;2022-11-21T05:21:09;97645.25;;;11.95;59.94
60820;BME280;46641;48.904;9.126;2022-11-21T05:26:00;97656.09;;;11.91;60.17
60820;BME280;46641;48.904;9.126;2022-11-21T05:30:50;97662.34;;;11.90;60.32
60820;BME280;46641;48.904;9.126;2022-11-21T05:35:40;97652.84;;;11.89;60.15
60820;BME280;46641;48.904;9.126;2022-11-21T05:40:31;97654.47;;;11.90;59.95
60820;BME280;46641;48.904;9.126;2022-11-21T05:45:21;97659.25;;;11.87;60.42
60820;BME280;46641;48.904;9.126;2022-11-21T05:50:11;97666.47;;;11.85;60.69
60820;BME280;46641;48.904;9.126;2022-11-21T05:55:02;97668.75;;;11.88;60.81
60820;BME280;46641;48.904;9.126;2022-11-21T05:59:52;97667.38;;;11.92;60.39
60820;BME280;46641;48.904;9.126;2022-11-21T06:04:42;97668.38;;;11.91;60.60
60820;BME280;46641;48.904;9.126;2022-11-21T06:09:33;97658.34;;;11.72;59.62
60820;BME280;46641;48.904;9.126;2022-11-21T06:14:23;97662.38;;;11.59;58.68
60820;BME280;46641;48.904;9.126;2022-11-21T06:19:13;97661.78;;;11.49;59.03
60820;BME280;46641;48.904;9.126;2022-11-21T06:24:04;97660.75;;;11.58;59.19
60820;BME280;46641;48.904;9.126;2022-11-21T06:28:54;97673.78;;;11.66;59.02
60820;BME280;46641;48.904;9.126;2022-11-21T06:33:45;97671.25;;;11.73;58.82
60820;BME280;46641;48.904;9.126;2022-11-21T06:38:36;97669.13;;;11.77;58.91
60820;BME280;46641;48.904;9.126;2022-11-21T06:43:26;97661.88;;;11.79;58.91
60820;BME280;46641;48.904;9.126;2022-11-21T06:48:17;97666.97;;;11.80;58.99
60820;BME280;46641;48.904;9.126;2022-11-21T06:53:07;97692.19;;;11.81;58.86
60820;BME280;46641;48.904;9.126;2022-11-21T06:57:58;97689.38;;;11.83;59.06
60820;BME280;46641;48.904;9.126;2022-11-21T07:02:48;97694.50;;;11.84;59.19
60820;BME280;46641;48.904;9.126;2022-11-21T07:07:38;97689.25;;;11.84;59.23
60820;BME280;46641;48.904;9.126;2022-11-21T07:12:29;97693.97;;;11.89;59.12
60820;BME280;46641;48.904;9.126;2022-11-21T07:17:37;97692.34;;;11.88;59.07
60820;BME280;46641;48.904;9.126;2022-11-21T07:22:28;97693.16;;;11.88;59.35
60820;BME280;46641;48.904;9.126;2022-11-21T07:27:18;97686.94;;;11.89;59.16
60820;BME280;46641;48.904;9.126;2022-11-21T07:32:08;97679.06;;;11.89;59.31
60820;BME280;46641;48.904;9.126;2022-11-21T07:36:59;97680.84;;;11.89;59.30
60820;BME280;46641;48.904;9.126;2022-11-21T07:41:49;97678.88;;;11.91;59.62
60820;BME280;46641;48.904;9.126;2022-11-21T07:46:40;97680.69;;;11.90;59.42
60820;BME280;46641;48.904;9.126;2022-11-21T07:51:30;97690.16;;;11.91;59.45
60820;BME280;46641;48.904;9.126;2022-11-21T07:56:20;97686.75;;;11.91;59.59
60820;BME280;46641;48.904;9.126;2022-11-21T08:01:11;97683.13;;;11.92;59.47
60820;BME280;46641;48.904;9.126;2022-11-21T08:06:03;97697.88;;;11.93;59.46
60820;BME280;46641;48.904;9.126;2022-11-21T08:10:53;97702.13;;;11.94;59.48
60820;BME280;46641;48.904;9.126;2022-11-21T08:15:44;97691.63;;;11.94;59.52
60820;BME280;46641;48.904;9.126;2022-11-21T08:20:34;97689.16;;;11.92;59.35
60820;BME280;46641;48.904;9.126;2022-11-21T08:25:24;97690.00;;;11.93;59.75
60820;BME280;46641;48.904;9.126;2022-11-21T08:30:15;97675.91;;;11.94;59.62
60820;BME280;46641;48.904;9.126;2022-11-21T08:35:06;97679.34;;;11.95;59.54
60820;BME280;46641;48.904;9.126;2022-11-21T08:39:57;97669.66;;;11.95;59.47
60820;BME280;46641;48.904;9.126;2022-11-21T08:44:51;97673.09;;;11.96;59.82
60820;BME280;46641;48.904;9.126;2022-11-21T08:49:41;97663.09;;;11.99;59.55
60820;BME280;46641;48.904;9.126;2022-11-21T08:54:32;97667.78;;;12.04;59.52
60820;BME280;46641;48.904;9.126;2022-11-21T08:59:22;97653.50;;;12.06;59.51
60820;BME280;46641;48.904;9.126;2022-11-21T09:04:12;97661.84;;;12.10;59.45
60820;BME280;46641;48.904;9.126;2022-11-21T09:09:06;97657.22;;;12.12;59.20
60820;BME280;46641;48.904;9.126;2022-11-21T09:13:57;97645.91;;;12.11;59.65
60820;BME280;46641;48.904;9.126;2022-11-21T09:19:06;97644.75;;;12.14;59.24
60820;BME280;46641;48.904;9.126;2022-11-21T09:23:57;97646.66;;;12.20;59.14
60820;BME280;46641;48.904;9.126;2022-11-21T09:28:47;97647.56;;;12.27;59.27
60820;BME280;46641;48.904;9.126;2022-11-21T09:33:37;97638.31;;;12.31;58.80
60820;BME280;46641;48.904;9.126;2022-11-21T09:38:28;97643.22;;;12.34;58.84
60820;BME280;46641;48.904;9.126;2022-11-21T09:43:50;97650.38;;;12.40;58.19
60820;BME280;46641;48.904;9.126;2022-11-21T09:48:50;97641.69;;;12.40;58.65
60820;BME280;46641;48.904;9.126;2022-11-21T09:54:01;97639.53;;;12.44;58.72
60820;BME280;46641;48.904;9.126;2022-11-21T09:59:16;97626.22;;;12.45;58.78
60820;BME280;46641;48.904;9.126;2022-11-21T10:04:11;97605.69;;;12.49;58.78
60820;BME280;46641;48.904;9.126;2022-11-21T10:14:22;97595.06;;;12.57;58.52
60820;BME280;46641;48.904;9.126;2022-11-21T10:24:44;97572.34;;;12.64;58.68
60820;BME280;46641;48.904;9.126;2022-11-21T10:29:44;97565.91;;;12.67;58.54
60820;BME280;46641;48.904;9.126;2022-11-21T10:34:37;97562.31;;;12.68;58.36
60820;BME280;46641;48.904;9.126;2022-11-21T10:39:38;97578.44;;;12.65;58.33
60820;BME280;46641;48.904;9.126;2022-11-21T10:44:30;97588.72;;;12.66;59.15
60820;BME280;46641;48.904;9.126;2022-11-21T10:49:39;97571.81;;;12.69;58.79
60820;BME280;46641;48.904;9.126;2022-11-21T10:54:31;97538.31;;;12.71;59.00
60820;BME280;46641;48.904;9.126;2022-11-21T10:59:26;97527.25;;;12.75;58.78
60820;BME280;46641;48.904;9.126;2022-11-21T11:04:17;97518.38;;;12.76;58.64
60820;BME280;46641;48.904;9.126;2022-11-21T11:09:30;97518.19;;;12.78;58.83
60820;BME280;46641;48.904;9.126;2022-11-21T11:14:30;97512.94;;;12.78;59.12
60820;BME280;46641;48.904;9.126;2022-11-21T11:19:28;97494.38;;;12.79;58.85
60820;BME280;46641;48.904;9.126;2022-11-21T11:24:24;97487.28;;;12.80;58.94
60820;BME280;46641;48.904;9.126;2022-11-21T11:29:21;97472.56;;;12.79;58.73
60820;BME280;46641;48.904;9.126;2022-11-21T11:34:13;97461.25;;;12.78;59.16
60820;BME280;46641;48.904;9.126;2022-11-21T11:39:15;97457.44;;;12.81;59.07
60820;BME280;46641;48.904;9.126;2022-11-21T11:44:13;97447.91;;;12.80;58.84
60820;BME280;46641;48.904;9.126;2022-11-21T11:55:03;97420.31;;;12.84;58.84
60820;BME280;46641;48.904;9.126;2022-11-21T12:00:12;97414.66;;;12.87;58.74
60820;BME280;46641;48.904;9.126;2022-11-21T12:05:16;97407.16;;;12.84;58.18
60820;BME280;46641;48.904;9.126;2022-11-21T12:10:16;97401.16;;;12.69;57.59
60820;BME280;46641;48.904;9.126;2022-11-21T12:15:30;97401.47;;;12.59;57.76
60820;BME280;46641;48.904;9.126;2022-11-21T12:36:34;97357.38;;;12.97;57.71
60820;BME280;46641;48.904;9.126;2022-11-21T12:41:39;97346.13;;;13.03;57.31
60820;BME280;46641;48.904;9.126;2022-11-21T12:47:16;97344.69;;;12.30;59.63
60820;BME280;46641;48.904;9.126;2022-11-21T12:52:19;97335.44;;;12.83;58.00
60820;BME280;46641;48.904;9.126;2022-11-21T12:57:45;97308.47;;;12.96;57.27
60820;BME280;46641;48.904;9.126;2022-11-21T13:07:47;97279.25;;;13.13;57.25
60820;BME280;46641;48.904;9.126;2022-11-21T13:12:46;97276.66;;;13.19;57.02
60820;BME280;46641;48.904;9.126;2022-11-21T13:18:14;97256.09;;;13.23;56.93
60820;BME280;46641;48.904;9.126;2022-11-21T13:28:45;97250.06;;;13.29;56.74
60820;BME280;46641;48.904;9.126;2022-11-21T13:38:26;97247.03;;;13.32;57.01
60820;BME280;46641;48.904;9.126;2022-11-21T13:43:25;97246.06;;;13.33;56.76
60820;BME280;46641;48.904;9.126;2022-11-21T13:48:31;97234.75;;;13.32;57.51
60820;BME280;46641;48.904;9.126;2022-11-21T13:58:50;97216.00;;;13.07;57.54
60820;BME280;46641;48.904;9.126;2022-11-21T14:09:13;97197.13;;;13.32;56.70
60820;BME280;46641;48.904;9.126;2022-11-21T14:14:07;97185.03;;;13.38;56.81
60820;BME280;46641;48.904;9.126;2022-11-21T14:18:59;97169.88;;;13.40;56.92
60820;BME280;46641;48.904;9.126;2022-11-21T14:23:50;97184.63;;;13.41;56.83
60820;BME280;46641;48.904;9.126;2022-11-21T14:28:40;97179.38;;;13.41;57.07
60820;BME280;46641;48.904;9.126;2022-11-21T14:33:43;97164.41;;;13.41;56.83
60820;BME280;46641;48.904;9.126;2022-11-21T14:43:35;97155.78;;;13.13;56.83
60820;BME280;46641;48.904;9.126;2022-11-21T14:48:29;97151.84;;;12.47;59.04
60820;BME280;46641;48.904;9.126;2022-11-21T14:53:19;97137.16;;;12.94;57.78
60820;BME280;46641;48.904;9.126;2022-11-21T14:58:13;97122.28;;;13.15;57.36
60820;BME280;46641;48.904;9.126;2022-11-21T15:03:17;97104.97;;;13.27;56.56
60820;BME280;46641;48.904;9.126;2022-11-21T15:08:08;97091.63;;;13.35;56.86
60820;BME280;46641;48.904;9.126;2022-11-21T15:13:12;97063.72;;;13.34;56.57
60820;BME280;46641;48.904;9.126;2022-11-21T15:18:11;97042.72;;;13.34;56.78
60820;BME280;46641;48.904;9.126;2022-11-21T15:23:03;97028.94;;;13.32;56.94
60820;BME280;46641;48.904;9.126;2022-11-21T15:37:57;96997.31;;;12.72;57.13
60820;BME280;46641;48.904;9.126;2022-11-21T15:42:49;97003.78;;;12.70;56.96
60820;BME280;46641;48.904;9.126;2022-11-21T15:47:39;96969.84;;;12.61;56.92
60820;BME280;46641;48.904;9.126;2022-11-21T15:52:29;96969.47;;;12.78;56.91
60820;BME280;46641;48.904;9.126;2022-11-21T15:57:20;96963.03;;;12.87;56.56
60820;BME280;46641;48.904;9.126;2022-11-21T16:02:13;96951.13;;;12.91;56.46
60820;BME280;46641;48.904;9.126;2022-11-21T16:07:04;96933.13;;;12.95;56.50
60820;BME280;46641;48.904;9.126;2022-11-21T16:11:54;96932.13;;;12.96;56.53
60820;BME280;46641;48.904;9.126;2022-11-21T16:16:45;96922.41;;;12.96;56.62
60820;BME280;46641;48.904;9.126;2022-11-21T16:21:36;96904.66;;;12.92;56.63
60820;BME280;46641;48.904;9.126;2022-11-21T16:26:26;96906.47;;;12.91;56.36
60820;BME280;46641;48.904;9.126;2022-11-21T16:31:27;96899.59;;;12.90;56.56
60820;BME280;46641;48.904;9.126;2022-11-21T16:36:23;96877.78;;;12.90;56.84
60820;BME280;46641;48.904;9.126;2022-11-21T16:41:16;96855.97;;;12.89;56.66
60820;BME280;46641;48.904;9.126;2022-11-21T16:46:08;96856.38;;;12.86;56.72
60820;BME280;46641;48.904;9.126;2022-11-21T16:51:17;96864.66;;;12.83;57.03
60820;BME280;46641;48.904;9.126;2022-11-21T16:56:08;96871.94;;;12.81;56.79
60820;BME280;46641;48.904;9.126;2022-11-21T17:01:14;96846.28;;;12.76;56.70
60820;BME280;46641;48.904;9.126;2022-11-21T17:06:05;96842.84;;;12.76;56.86
60820;BME280;46641;48.904;9.126;2022-11-21T17:10:55;96840.22;;;12.76;57.00
60820;BME280;46641;48.904;9.126;2022-11-21T17:15:46;96830.75;;;12.75;56.96
60820;BME280;46641;48.904;9.126;2022-11-21T17:20:36;96830.94;;;12.73;56.90
60820;BME280;46641;48.904;9.126;2022-11-21T17:25:27;96824.47;;;12.62;56.17
60820;BME280;46641;48.904;9.126;2022-11-21T17:30:17;96803.88;;;12.59;56.49
60820;BME280;46641;48.904;9.126;2022-11-21T17:35:07;96833.78;;;12.58;56.26
60820;BME280;46641;48.904;9.126;2022-11-21T17:39:58;96816.38;;;12.57;56.76
60820;BME280;46641;48.904;9.126;2022-11-21T17:44:48;96773.19;;;12.53;56.31
60820;BME280;46641;48.904;9.126;2022-11-21T17:49:38;96768.75;;;12.47;56.88
60820;BME280;46641;48.904;9.126;2022-11-21T17:54:29;96792.59;;;12.46;56.70
60820;BME280;46641;48.904;9.126;2022-11-21T17:59:19;96803.28;;;12.44;57.40
60820;BME280;46641;48.904;9.126;2022-11-21T18:04:09;96786.53;;;12.45;57.24
60820;BME280;46641;48.904;9.126;2022-11-21T18:09:00;96772.81;;;12.43;57.11
60820;BME280;46641;48.904;9.126;2022-11-21T18:13:52;96762.72;;;12.40;57.49
60820;BME280;46641;48.904;9.126;2022-11-21T18:18:42;96767.97;;;12.40;57.46
60820;BME280;46641;48.904;9.126;2022-11-21T18:23:33;96761.91;;;12.39;57.65
60820;BME280;46641;48.904;9.126;2022-11-21T18:28:23;96755.84;;;12.39;57.57
60820;BME280;46641;48.904;9.126;2022-11-21T18:33:14;96775.22;;;12.38;57.53
60820;BME280;46641;48.904;9.126;2022-11-21T18:38:04;96783.69;;;12.40;57.66
60820;BME280;46641;48.904;9.126;2022-11-21T18:42:54;96766.94;;;12.41;57.49
60820;BME280;46641;48.904;9.126;2022-11-21T18:47:45;96762.53;;;12.42;57.34
60820;BME280;46641;48.904;9.126;2022-11-21T18:52:35;96751.59;;;12.38;57.75
60820;BME280;46641;48.904;9.126;2022-11-21T18:57:26;96748.97;;;12.38;57.40
60820;BME280;46641;48.904;9.126;2022-11-21T19:02:16;96760.31;;;12.38;57.51
60820;BME280;46641;48.904;9.126;2022-11-21T19:07:06;96750.63;;;12.39;57.74
60820;BME280;46641;48.904;9.126;2022-11-21T19:11:57;96730.03;;;12.36;57.61
60820;BME280;46641;48.904;9.126;2022-11-21T19:16:47;96717.09;;;12.34;57.62
60820;BME280;46641;48.904;9.126;2022-11-21T19:21:38;96717.72;;;12.30;57.57
60820;BME280;46641;48.904;9.126;2022-11-21T19:26:29;96712.25;;;12.31;57.60
60820;BME280;46641;48.904;9.126;2022-11-21T19:31:20;96706.22;;;12.31;57.72
60820;BME280;46641;48.904;9.126;2022-11-21T19:36:21;96711.47;;;12.31;57.49
60820;BME280;46641;48.904;9.126;2022-11-21T19:41:22;96704.59;;;12.30;57.54
60820;BME280;46641;48.904;9.126;2022-11-21T19:46:17;96701.97;;;12.30;57.99
60820;BME280;46641;48.904;9.126;2022-11-21T19:51:08;96704.59;;;12.30;57.91
60820;BME280;46641;48.904;9.126;2022-11-21T19:56:09;96687.25;;;12.29;57.73
60820;BME280;46641;48.904;9.126;2022-11-21T20:01:04;96692.50;;;12.29;57.82
60820;BME280;46641;48.904;9.126;2022-11-21T20:06:03;96689.88;;;12.29;57.74
60820;BME280;46641;48.904;9.126;2022-11-21T20:10:53;96689.06;;;12.28;57.95
60820;BME280;46641;48.904;9.126;2022-11-21T20:15:44;96690.88;;;12.28;58.16
60820;BME280;46641;48.904;9.126;2022-11-21T20:20:34;96698.75;;;12.28;57.81
60820;BME280;46641;48.904;9.126;2022-11-21T20:25:24;96701.38;;;12.28;58.16
60820;BME280;46641;48.904;9.126;2022-11-21T20:30:15;96710.25;;;12.27;57.88
60820;BME280;46641;48.904;9.126;2022-11-21T20:35:05;96707.63;;;12.27;58.10
60820;BME280;46641;48.904;9.126;2022-11-21T20:39:56;96699.75;;;12.27;58.29
60820;BME280;46641;48.904;9.126;2022-11-21T20:44:46;96700.56;;;12.27;57.93
60820;BME280;46641;48.904;9.126;2022-11-21T20:49:36;96699.75;;;12.27;58.19
60820;BME280;46641;48.904;9.126;2022-11-21T20:54:27;96698.16;;;12.26;57.96
60820;BME280;46641;48.904;9.126;2022-11-21T20:59:17;96686.88;;;12.25;58.28
60820;BME280;46641;48.904;9.126;2022-11-21T21:04:07;96687.06;;;12.24;58.04
60820;BME280;46641;48.904;9.126;2022-11-21T21:08:58;96686.44;;;12.22;58.19
60820;BME280;46641;48.904;9.126;2022-11-21T21:13:48;96675.94;;;12.22;58.21
60820;BME280;46641;48.904;9.126;2022-11-21T21:18:41;96687.06;;;12.24;58.32
60820;BME280;46641;48.904;9.126;2022-11-21T21:23:32;96681.81;;;12.24;58.06
60820;BME280;46641;48.904;9.126;2022-11-21T21:28:23;96675.94;;;12.22;58.43
60820;BME280;46641;48.904;9.126;2022-11-21T21:33:13;96669.72;;;12.23;58.15
60820;BME280;46641;48.904;9.126;2022-11-21T21:38:05;96660.22;;;12.22;58.46
60820;BME280;46641;48.904;9.126;2022-11-21T21:42:55;96663.03;;;12.20;58.10
60820;BME280;46641;48.904;9.126;2022-11-21T21:47:46;96665.44;;;12.22;58.31
60820;BME280;46641;48.904;9.126;2022-11-21T21:52:36;96659.41;;;12.21;58.44
60820;BME280;46641;48.904;9.126;2022-11-21T21:57:26;96656.78;;;12.21;58.15
60820;BME280;46641;48.904;9.126;2022-11-21T22:02:16;96642.88;;;12.21;58.14
60820;BME280;46641;48.904;9.126;2022-11-21T22:07:07;96635.22;;;12.19;58.22
60820;BME280;46641;48.904;9.126;2022-11-21T22:11:57;96646.69;;;12.18;58.50
60820;BME280;46641;48.904;9.126;2022-11-21T22:16:47;96662.03;;;12.21;58.48
60820;BME280;46641;48.904;9.126;2022-11-21T22:21:38;96675.13;;;12.21;58.37
60820;BME280;46641;48.904;9.126;2022-11-21T22:26:28;96680.59;;;12.20;58.40
60820;BME280;46641;48.904;9.126;2022-11-21T22:31:19;96672.75;;;12.20;58.43
60820;BME280;46641;48.904;9.126;2022-11-21T22:36:15;96664.66;;;12.21;58.22
60820;BME280;46641;48.904;9.126;2022-11-21T22:41:16;96677.97;;;12.20;58.46
60820;BME280;46641;48.904;9.126;2022-11-21T22:46:08;96669.09;;;12.21;58.47
60820;BME280;46641;48.904;9.126;2022-11-21T22:50:58;96674.34;;;12.21;58.51
60820;BME280;46641;48.904;9.126;2022-11-21T22:55:56;96666.47;;;12.21;58.25
60820;BME280;46641;48.904;9.126;2022-11-21T23:00:47;96663.03;;;12.20;58.62
60820;BME280;46641;48.904;9.126;2022-11-21T23:05:37;96665.66;;;12.20;58.44
60820;BME280;46641;48.904;9.126;2022-11-21T23:10:28;96665.44;;;12.22;58.74
60820;BME280;46641;48.904;9.126;2022-11-21T23:15:18;96648.13;;;12.21;58.52
60820;BME280;46641;48.904;9.126;2022-11-21T23:20:09;96644.69;;;12.20;58.80
60820;BME280;46641;48.904;9.126;2022-11-21T23:24:59;96629.75;;;12.21;58.79
60820;BME280;46641;48.904;9.126;2022-11-21T23:29:49;96611.81;;;12.18;58.91
60820;BME280;46641;48.904;9.126;2022-11-21T23:34:40;96605.53;;;12.19;59.41
60820;BME280;46641;48.904;9.126;2022-11-21T23:39:30;96628.34;;;12.18;58.88
60820;BME280;46641;48.904;9.126;2022-11-21T23:44:20;96625.72;;;12.18;58.83
60820;BME280;46641;48.904;9.126;2022-11-21T23:49:10;96628.34;;;12.18;59.02
60820;BME280;46641;48.904;9.126;2022-11-21T23:54:01;96627.34;;;12.19;58.82
60820;BME280;46641;48.904;9.126;2022-11-21T23:58:51;96617.66;;;12.20;58.88
